sensor_id;sensor_type;location;lat;lon;timestamp;P1;durP1;ratioP1;P2;durP2;ratioP2
51467;SDS011;37545;45.302;-122.946;2023-04-06T00:00:36;0.85;;;0.30;;
51467;SDS011;37545;45.302;-122.946;2023-04-06T00:03:04;2.17;;;0.35;;
51467;SDS011;37545;45.302;-122.946;2023-04-06T00:05:33;0.30;;;0.30;;
51467;SDS011;37545;45.302;-122.946;2023-04-06T00:08:01;1.65;;;0.70;;
51467;SDS011;37545;45.302;-122.946;2023-04-06T00:10:31;4.75;;;0.43;;
51467;SDS011;37545;45.302;-122.946;2023-04-06T00:13:00;0.95;;;0.40;;
51467;SDS011;37545;45.302;-122.946;2023-04-06T00:15:29;0.80;;;0.40;;
51467;SDS011;37545;45.302;-122.946;2023-04-06T00:17:57;0.45;;;0.25;;
51467;SDS011;37545;45.302;-122.946;2023-04-06T00:20:26;0.60;;;0.50;;
51467;SDS011;37545;45.302;-122.946;2023-04-06T00:22:54;0.52;;;0.40;;
51467;SDS011;37545;45.302;-122.946;2023-04-06T00:25:23;0.32;;;0.25;;
51467;SDS011;37545;45.302;-122.946;2023-04-06T00:27:53;1.20;;;0.45;;
51467;SDS011;37545;45.302;-122.946;2023-04-06T00:30:24;2.83;;;0.50;;
51467;SDS011;37545;45.302;-122.946;2023-04-06T00:32:54;0.80;;;0.50;;
51467;SDS011;37545;45.302;-122.946;2023-04-06T00:35:22;0.25;;;0.25;;
51467;SDS011;37545;45.302;-122.946;2023-04-06T00:37:51;0.95;;;0.32;;
51467;SDS011;37545;45.302;-122.946;2023-04-06T00:40:20;0.35;;;0.32;;
51467;SDS011;37545;45.302;-122.946;2023-04-06T00:42:48;0.35;;;0.30;;
51467;SDS011;37545;45.302;-122.946;2023-04-06T00:45:19;0.70;;;0.50;;
51467;SDS011;37545;45.302;-122.946;2023-04-06T00:47:48;0.38;;;0.30;;
51467;SDS011;37545;45.302;-122.946;2023-04-06T00:50:16;0.73;;;0.30;;
51467;SDS011;37545;45.302;-122.946;2023-04-06T00:52:45;0.50;;;0.25;;
51467;SDS011;37545;45.302;-122.946;2023-04-06T00:55:14;0.95;;;0.30;;
51467;SDS011;37545;45.302;-122.946;2023-04-06T00:57:49;0.30;;;0.28;;
51467;SDS011;37545;45.302;-122.946;2023-04-06T01:00:19;0.38;;;0.30;;
51467;SDS011;37545;45.302;-122.946;2023-04-06T01:02:48;0.82;;;0.30;;
51467;SDS011;37545;45.302;-122.946;2023-04-06T01:05:17;1.58;;;0.40;;
51467;SDS011;37545;45.302;-122.946;2023-04-06T01:07:52;1.38;;;0.50;;
51467;SDS011;37545;45.302;-122.946;2023-04-06T01:10:24;0.20;;;0.20;;
51467;SDS011;37545;45.302;-122.946;2023-04-06T01:12:53;1.33;;;0.50;;
51467;SDS011;37545;45.302;-122.946;2023-04-06T01:15:23;0.80;;;0.30;;
51467;SDS011;37545;45.302;-122.946;2023-04-06T01:17:53;0.30;;;0.28;;
51467;SDS011;37545;45.302;-122.946;2023-04-06T01:20:22;1.15;;;0.40;;
51467;SDS011;37545;45.302;-122.946;2023-04-06T01:22:52;0.30;;;0.30;;
51467;SDS011;37545;45.302;-122.946;2023-04-06T01:25:21;0.30;;;0.20;;
51467;SDS011;37545;45.302;-122.946;2023-04-06T01:27:49;0.32;;;0.22;;
51467;SDS011;37545;45.302;-122.946;2023-04-06T01:30:18;0.63;;;0.43;;
51467;SDS011;37545;45.302;-122.946;2023-04-06T01:32:46;2.30;;;0.32;;
51467;SDS011;37545;45.302;-122.946;2023-04-06T01:35:15;2.05;;;0.40;;
51467;SDS011;37545;45.302;-122.946;2023-04-06T01:37:43;0.45;;;0.40;;
51467;SDS011;37545;45.302;-122.946;2023-04-06T01:40:14;1.48;;;0.30;;
51467;SDS011;37545;45.302;-122.946;2023-04-06T01:42:42;0.35;;;0.25;;
51467;SDS011;37545;45.302;-122.946;2023-04-06T01:45:14;1.02;;;0.50;;
51467;SDS011;37545;45.302;-122.946;2023-04-06T01:47:43;0.90;;;0.50;;
51467;SDS011;37545;45.302;-122.946;2023-04-06T01:50:18;1.25;;;0.43;;
51467;SDS011;37545;45.302;-122.946;2023-04-06T01:52:53;0.40;;;0.20;;
51467;SDS011;37545;45.302;-122.946;2023-04-06T01:55:31;0.60;;;0.38;;
51467;SDS011;37545;45.302;-122.946;2023-04-06T01:58:05;0.45;;;0.30;;
51467;SDS011;37545;45.302;-122.946;2023-04-06T02:00:36;1.25;;;0.40;;
51467;SDS011;37545;45.302;-122.946;2023-04-06T02:03:05;0.30;;;0.28;;
51467;SDS011;37545;45.302;-122.946;2023-04-06T02:05:34;0.55;;;0.40;;
51467;SDS011;37545;45.302;-122.946;2023-04-06T02:08:04;1.75;;;0.40;;
51467;SDS011;37545;45.302;-122.946;2023-04-06T02:10:34;1.38;;;0.30;;
51467;SDS011;37545;45.302;-122.946;2023-04-06T02:13:03;1.75;;;0.30;;
51467;SDS011;37545;45.302;-122.946;2023-04-06T02:15:32;0.55;;;0.35;;
51467;SDS011;37545;45.302;-122.946;2023-04-06T02:18:00;0.43;;;0.35;;
51467;SDS011;37545;45.302;-122.946;2023-04-06T02:20:29;1.73;;;0.57;;
51467;SDS011;37545;45.302;-122.946;2023-04-06T02:22:58;0.52;;;0.25;;
51467;SDS011;37545;45.302;-122.946;2023-04-06T02:25:27;1.00;;;0.38;;
51467;SDS011;37545;45.302;-122.946;2023-04-06T02:27:57;1.75;;;0.43;;
51467;SDS011;37545;45.302;-122.946;2023-04-06T02:30:26;0.75;;;0.50;;
51467;SDS011;37545;45.302;-122.946;2023-04-06T02:32:55;0.60;;;0.50;;
51467;SDS011;37545;45.302;-122.946;2023-04-06T02:35:24;1.13;;;0.50;;
51467;SDS011;37545;45.302;-122.946;2023-04-06T02:37:53;0.57;;;0.30;;
51467;SDS011;37545;45.302;-122.946;2023-04-06T02:40:21;0.32;;;0.32;;
51467;SDS011;37545;45.302;-122.946;2023-04-06T02:42:50;0.77;;;0.40;;
51467;SDS011;37545;45.302;-122.946;2023-04-06T02:45:20;0.85;;;0.50;;
51467;SDS011;37545;45.302;-122.946;2023-04-06T02:47:49;1.00;;;0.50;;
51467;SDS011;37545;45.302;-122.946;2023-04-06T02:50:18;0.82;;;0.50;;
51467;SDS011;37545;45.302;-122.946;2023-04-06T02:52:46;0.45;;;0.38;;
51467;SDS011;37545;45.302;-122.946;2023-04-06T02:55:15;0.77;;;0.50;;
51467;SDS011;37545;45.302;-122.946;2023-04-06T02:57:44;2.97;;;0.50;;
51467;SDS011;37545;45.302;-122.946;2023-04-06T03:00:13;1.63;;;0.47;;
51467;SDS011;37545;45.302;-122.946;2023-04-06T03:02:44;0.95;;;0.52;;
51467;SDS011;37545;45.302;-122.946;2023-04-06T03:05:12;1.17;;;0.40;;
51467;SDS011;37545;45.302;-122.946;2023-04-06T03:07:41;0.30;;;0.20;;
51467;SDS011;37545;45.302;-122.946;2023-04-06T03:10:10;0.30;;;0.30;;
51467;SDS011;37545;45.302;-122.946;2023-04-06T03:12:39;2.08;;;0.43;;
51467;SDS011;37545;45.302;-122.946;2023-04-06T03:15:09;1.60;;;0.40;;
51467;SDS011;37545;45.302;-122.946;2023-04-06T03:17:38;0.50;;;0.40;;
51467;SDS011;37545;45.302;-122.946;2023-04-06T03:20:11;0.47;;;0.30;;
51467;SDS011;37545;45.302;-122.946;2023-04-06T03:22:40;1.05;;;0.65;;
51467;SDS011;37545;45.302;-122.946;2023-04-06T03:25:09;0.17;;;0.10;;
51467;SDS011;37545;45.302;-122.946;2023-04-06T03:27:37;0.82;;;0.40;;
51467;SDS011;37545;45.302;-122.946;2023-04-06T03:30:06;1.55;;;0.50;;
51467;SDS011;37545;45.302;-122.946;2023-04-06T03:32:35;0.50;;;0.40;;
51467;SDS011;37545;45.302;-122.946;2023-04-06T03:35:04;1.08;;;0.43;;
51467;SDS011;37545;45.302;-122.946;2023-04-06T03:37:34;0.45;;;0.32;;
51467;SDS011;37545;45.302;-122.946;2023-04-06T03:40:03;1.33;;;0.30;;
51467;SDS011;37545;45.302;-122.946;2023-04-06T03:42:33;0.63;;;0.40;;
51467;SDS011;37545;45.302;-122.946;2023-04-06T03:45:01;0.52;;;0.40;;
51467;SDS011;37545;45.302;-122.946;2023-04-06T03:47:30;0.65;;;0.40;;
51467;SDS011;37545;45.302;-122.946;2023-04-06T03:49:59;0.95;;;0.40;;
51467;SDS011;37545;45.302;-122.946;2023-04-06T03:52:28;1.73;;;0.57;;
51467;SDS011;37545;45.302;-122.946;2023-04-06T03:54:59;1.15;;;0.60;;
51467;SDS011;37545;45.302;-122.946;2023-04-06T03:57:28;0.43;;;0.30;;
51467;SDS011;37545;45.302;-122.946;2023-04-06T03:59:56;0.43;;;0.38;;
51467;SDS011;37545;45.302;-122.946;2023-04-06T04:02:25;0.55;;;0.50;;
51467;SDS011;37545;45.302;-122.946;2023-04-06T04:04:53;0.95;;;0.57;;
51467;SDS011;37545;45.302;-122.946;2023-04-06T04:07:22;4.53;;;0.80;;
51467;SDS011;37545;45.302;-122.946;2023-04-06T04:09:50;1.33;;;0.63;;
51467;SDS011;37545;45.302;-122.946;2023-04-06T04:12:21;1.38;;;0.60;;
51467;SDS011;37545;45.302;-122.946;2023-04-06T04:14:49;0.90;;;0.55;;
51467;SDS011;37545;45.302;-122.946;2023-04-06T04:17:18;2.78;;;0.50;;
51467;SDS011;37545;45.302;-122.946;2023-04-06T04:19:46;0.90;;;0.52;;
51467;SDS011;37545;45.302;-122.946;2023-04-06T04:22:15;0.73;;;0.43;;
51467;SDS011;37545;45.302;-122.946;2023-04-06T04:24:44;1.25;;;0.47;;
51467;SDS011;37545;45.302;-122.946;2023-04-06T04:27:12;0.88;;;0.47;;
51467;SDS011;37545;45.302;-122.946;2023-04-06T04:29:42;1.15;;;0.60;;
51467;SDS011;37545;45.302;-122.946;2023-04-06T04:32:11;1.60;;;0.70;;
51467;SDS011;37545;45.302;-122.946;2023-04-06T04:34:39;0.90;;;0.50;;
51467;SDS011;37545;45.302;-122.946;2023-04-06T04:37:08;0.57;;;0.45;;
51467;SDS011;37545;45.302;-122.946;2023-04-06T04:39:36;1.35;;;0.40;;
51467;SDS011;37545;45.302;-122.946;2023-04-06T04:42:05;0.73;;;0.50;;
51467;SDS011;37545;45.302;-122.946;2023-04-06T04:44:34;1.50;;;0.90;;
51467;SDS011;37545;45.302;-122.946;2023-04-06T04:47:04;0.90;;;0.50;;
51467;SDS011;37545;45.302;-122.946;2023-04-06T04:49:33;1.10;;;0.55;;
51467;SDS011;37545;45.302;-122.946;2023-04-06T04:52:01;2.58;;;0.88;;
51467;SDS011;37545;45.302;-122.946;2023-04-06T04:54:30;0.98;;;0.70;;
51467;SDS011;37545;45.302;-122.946;2023-04-06T04:56:58;0.90;;;0.65;;
51467;SDS011;37545;45.302;-122.946;2023-04-06T04:59:27;1.45;;;0.70;;
51467;SDS011;37545;45.302;-122.946;2023-04-06T05:01:56;1.70;;;0.90;;
51467;SDS011;37545;45.302;-122.946;2023-04-06T05:04:26;1.38;;;0.98;;
51467;SDS011;37545;45.302;-122.946;2023-04-06T05:07:02;1.40;;;0.80;;
51467;SDS011;37545;45.302;-122.946;2023-04-06T05:09:31;1.35;;;0.70;;
51467;SDS011;37545;45.302;-122.946;2023-04-06T05:11:59;1.63;;;0.90;;
51467;SDS011;37545;45.302;-122.946;2023-04-06T05:14:28;1.17;;;0.90;;
51467;SDS011;37545;45.302;-122.946;2023-04-06T05:16:57;3.63;;;0.80;;
51467;SDS011;37545;45.302;-122.946;2023-04-06T05:19:27;2.13;;;1.10;;
51467;SDS011;37545;45.302;-122.946;2023-04-06T05:21:56;2.67;;;0.70;;
51467;SDS011;37545;45.302;-122.946;2023-04-06T05:24:25;1.20;;;0.85;;
51467;SDS011;37545;45.302;-122.946;2023-04-06T05:26:53;1.20;;;0.60;;
51467;SDS011;37545;45.302;-122.946;2023-04-06T05:29:22;3.45;;;1.05;;
51467;SDS011;37545;45.302;-122.946;2023-04-06T05:31:50;3.25;;;0.70;;
51467;SDS011;37545;45.302;-122.946;2023-04-06T05:34:19;1.10;;;0.65;;
51467;SDS011;37545;45.302;-122.946;2023-04-06T05:36:49;1.00;;;0.60;;
51467;SDS011;37545;45.302;-122.946;2023-04-06T05:39:17;2.47;;;0.40;;
51467;SDS011;37545;45.302;-122.946;2023-04-06T05:41:46;0.80;;;0.50;;
51467;SDS011;37545;45.302;-122.946;2023-04-06T05:44:14;3.03;;;0.68;;
51467;SDS011;37545;45.302;-122.946;2023-04-06T05:46:43;1.55;;;0.77;;
51467;SDS011;37545;45.302;-122.946;2023-04-06T05:49:11;2.92;;;0.32;;
51467;SDS011;37545;45.302;-122.946;2023-04-06T05:51:40;0.88;;;0.40;;
51467;SDS011;37545;45.302;-122.946;2023-04-06T05:54:10;0.45;;;0.40;;
51467;SDS011;37545;45.302;-122.946;2023-04-06T05:56:38;0.50;;;0.43;;
51467;SDS011;37545;45.302;-122.946;2023-04-06T05:59:07;2.03;;;0.47;;
51467;SDS011;37545;45.302;-122.946;2023-04-06T06:01:35;0.95;;;0.30;;
51467;SDS011;37545;45.302;-122.946;2023-04-06T06:04:04;1.27;;;0.43;;
51467;SDS011;37545;45.302;-122.946;2023-04-06T06:06:33;2.95;;;0.60;;
51467;SDS011;37545;45.302;-122.946;2023-04-06T06:09:01;1.52;;;0.30;;
51467;SDS011;37545;45.302;-122.946;2023-04-06T06:11:31;0.70;;;0.40;;
51467;SDS011;37545;45.302;-122.946;2023-04-06T06:14:00;0.77;;;0.63;;
51467;SDS011;37545;45.302;-122.946;2023-04-06T06:16:29;1.63;;;0.70;;
51467;SDS011;37545;45.302;-122.946;2023-04-06T06:18:57;1.27;;;0.77;;
51467;SDS011;37545;45.302;-122.946;2023-04-06T06:21:26;0.50;;;0.38;;
51467;SDS011;37545;45.302;-122.946;2023-04-06T06:23:54;2.63;;;0.70;;
51467;SDS011;37545;45.302;-122.946;2023-04-06T06:26:23;0.60;;;0.43;;
51467;SDS011;37545;45.302;-122.946;2023-04-06T06:28:53;1.25;;;0.88;;
51467;SDS011;37545;45.302;-122.946;2023-04-06T06:31:22;2.83;;;0.55;;
51467;SDS011;37545;45.302;-122.946;2023-04-06T06:33:50;1.10;;;0.40;;
51467;SDS011;37545;45.302;-122.946;2023-04-06T06:36:19;0.70;;;0.60;;
51467;SDS011;37545;45.302;-122.946;2023-04-06T06:38:48;0.60;;;0.40;;
51467;SDS011;37545;45.302;-122.946;2023-04-06T06:41:16;0.90;;;0.70;;
51467;SDS011;37545;45.302;-122.946;2023-04-06T06:43:45;1.05;;;0.60;;
51467;SDS011;37545;45.302;-122.946;2023-04-06T06:46:15;0.73;;;0.50;;
51467;SDS011;37545;45.302;-122.946;2023-04-06T06:48:44;2.55;;;0.60;;
51467;SDS011;37545;45.302;-122.946;2023-04-06T06:51:12;0.63;;;0.40;;
51467;SDS011;37545;45.302;-122.946;2023-04-06T06:53:41;0.73;;;0.47;;
51467;SDS011;37545;45.302;-122.946;2023-04-06T06:56:09;0.93;;;0.30;;
51467;SDS011;37545;45.302;-122.946;2023-04-06T06:58:38;5.57;;;0.32;;
51467;SDS011;37545;45.302;-122.946;2023-04-06T07:01:06;4.53;;;0.60;;
51467;SDS011;37545;45.302;-122.946;2023-04-06T07:03:36;1.63;;;0.40;;
51467;SDS011;37545;45.302;-122.946;2023-04-06T07:06:05;0.50;;;0.30;;
51467;SDS011;37545;45.302;-122.946;2023-04-06T07:08:34;0.50;;;0.38;;
51467;SDS011;37545;45.302;-122.946;2023-04-06T07:11:03;0.43;;;0.40;;
51467;SDS011;37545;45.302;-122.946;2023-04-06T07:13:31;0.68;;;0.43;;
51467;SDS011;37545;45.302;-122.946;2023-04-06T07:16:00;0.50;;;0.30;;
51467;SDS011;37545;45.302;-122.946;2023-04-06T07:18:28;2.28;;;0.35;;
51467;SDS011;37545;45.302;-122.946;2023-04-06T07:20:59;1.02;;;0.40;;
51467;SDS011;37545;45.302;-122.946;2023-04-06T07:23:27;1.83;;;0.80;;
51467;SDS011;37545;45.302;-122.946;2023-04-06T07:25:56;2.42;;;0.38;;
51467;SDS011;37545;45.302;-122.946;2023-04-06T07:28:24;1.13;;;0.40;;
51467;SDS011;37545;45.302;-122.946;2023-04-06T07:30:53;0.98;;;0.40;;
51467;SDS011;37545;45.302;-122.946;2023-04-06T07:33:21;0.32;;;0.32;;
51467;SDS011;37545;45.302;-122.946;2023-04-06T07:35:50;0.50;;;0.30;;
51467;SDS011;37545;45.302;-122.946;2023-04-06T07:38:20;0.25;;;0.25;;
51467;SDS011;37545;45.302;-122.946;2023-04-06T07:40:49;0.28;;;0.25;;
51467;SDS011;37545;45.302;-122.946;2023-04-06T07:43:17;0.80;;;0.35;;
51467;SDS011;37545;45.302;-122.946;2023-04-06T07:45:46;0.82;;;0.40;;
51467;SDS011;37545;45.302;-122.946;2023-04-06T07:48:14;0.57;;;0.47;;
51467;SDS011;37545;45.302;-122.946;2023-04-06T07:50:43;0.35;;;0.35;;
51467;SDS011;37545;45.302;-122.946;2023-04-06T07:53:12;0.90;;;0.50;;
51467;SDS011;37545;45.302;-122.946;2023-04-06T07:58:14;0.63;;;0.32;;
51467;SDS011;37545;45.302;-122.946;2023-04-06T08:00:42;0.10;;;0.10;;
51467;SDS011;37545;45.302;-122.946;2023-04-06T08:03:11;0.10;;;0.10;;
51467;SDS011;37545;45.302;-122.946;2023-04-06T08:05:39;0.30;;;0.28;;
51467;SDS011;37545;45.302;-122.946;2023-04-06T08:08:08;0.22;;;0.22;;
51467;SDS011;37545;45.302;-122.946;2023-04-06T08:10:36;2.42;;;0.40;;
51467;SDS011;37545;45.302;-122.946;2023-04-06T08:13:06;0.13;;;0.10;;
51467;SDS011;37545;45.302;-122.946;2023-04-06T08:15:35;2.42;;;0.47;;
51467;SDS011;37545;45.302;-122.946;2023-04-06T08:18:04;1.45;;;0.32;;
51467;SDS011;37545;45.302;-122.946;2023-04-06T08:20:33;1.17;;;0.32;;
51467;SDS011;37545;45.302;-122.946;2023-04-06T08:23:02;0.85;;;0.40;;
51467;SDS011;37545;45.302;-122.946;2023-04-06T08:25:30;0.22;;;0.20;;
51467;SDS011;37545;45.302;-122.946;2023-04-06T08:27:59;0.40;;;0.30;;
51467;SDS011;37545;45.302;-122.946;2023-04-06T08:30:29;3.25;;;0.63;;
51467;SDS011;37545;45.302;-122.946;2023-04-06T08:32:58;1.10;;;0.50;;
51467;SDS011;37545;45.302;-122.946;2023-04-06T08:35:26;0.98;;;0.50;;
51467;SDS011;37545;45.302;-122.946;2023-04-06T08:37:55;0.30;;;0.30;;
51467;SDS011;37545;45.302;-122.946;2023-04-06T08:40:24;1.50;;;0.60;;
51467;SDS011;37545;45.302;-122.946;2023-04-06T08:42:54;0.43;;;0.40;;
51467;SDS011;37545;45.302;-122.946;2023-04-06T08:45:24;0.88;;;0.60;;
51467;SDS011;37545;45.302;-122.946;2023-04-06T08:47:54;0.88;;;0.50;;
51467;SDS011;37545;45.302;-122.946;2023-04-06T08:50:27;1.23;;;0.60;;
51467;SDS011;37545;45.302;-122.946;2023-04-06T08:52:57;1.60;;;0.80;;
51467;SDS011;37545;45.302;-122.946;2023-04-06T08:55:26;0.77;;;0.60;;
51467;SDS011;37545;45.302;-122.946;2023-04-06T08:57:55;1.63;;;0.65;;
51467;SDS011;37545;45.302;-122.946;2023-04-06T09:00:24;4.78;;;0.80;;
51467;SDS011;37545;45.302;-122.946;2023-04-06T09:02:57;1.00;;;0.63;;
51467;SDS011;37545;45.302;-122.946;2023-04-06T09:05:26;3.45;;;0.98;;
51467;SDS011;37545;45.302;-122.946;2023-04-06T09:07:54;1.00;;;0.75;;
51467;SDS011;37545;45.302;-122.946;2023-04-06T09:10:23;2.85;;;0.88;;
51467;SDS011;37545;45.302;-122.946;2023-04-06T09:13:01;1.20;;;0.63;;
51467;SDS011;37545;45.302;-122.946;2023-04-06T09:15:33;1.40;;;0.90;;
51467;SDS011;37545;45.302;-122.946;2023-04-06T09:18:04;0.73;;;0.60;;
51467;SDS011;37545;45.302;-122.946;2023-04-06T09:20:33;3.05;;;0.90;;
51467;SDS011;37545;45.302;-122.946;2023-04-06T09:23:02;1.55;;;0.63;;
51467;SDS011;37545;45.302;-122.946;2023-04-06T09:25:31;0.90;;;0.65;;
51467;SDS011;37545;45.302;-122.946;2023-04-06T09:27:59;1.52;;;0.95;;
51467;SDS011;37545;45.302;-122.946;2023-04-06T09:30:28;1.65;;;0.98;;
51467;SDS011;37545;45.302;-122.946;2023-04-06T09:32:57;2.08;;;1.08;;
51467;SDS011;37545;45.302;-122.946;2023-04-06T09:35:27;1.42;;;0.75;;
51467;SDS011;37545;45.302;-122.946;2023-04-06T09:37:58;1.42;;;0.80;;
51467;SDS011;37545;45.302;-122.946;2023-04-06T09:40:26;1.50;;;0.75;;
51467;SDS011;37545;45.302;-122.946;2023-04-06T09:42:55;2.75;;;1.00;;
51467;SDS011;37545;45.302;-122.946;2023-04-06T09:45:24;2.15;;;0.90;;
51467;SDS011;37545;45.302;-122.946;2023-04-06T09:47:56;1.00;;;0.70;;
51467;SDS011;37545;45.302;-122.946;2023-04-06T09:50:28;1.48;;;0.60;;
51467;SDS011;37545;45.302;-122.946;2023-04-06T09:52:59;1.95;;;0.82;;
51467;SDS011;37545;45.302;-122.946;2023-04-06T09:55:30;1.35;;;0.93;;
51467;SDS011;37545;45.302;-122.946;2023-04-06T09:58:03;3.83;;;0.88;;
51467;SDS011;37545;45.302;-122.946;2023-04-06T10:00:34;1.10;;;0.68;;
51467;SDS011;37545;45.302;-122.946;2023-04-06T10:03:19;2.95;;;1.00;;
51467;SDS011;37545;45.302;-122.946;2023-04-06T10:05:56;2.90;;;0.88;;
51467;SDS011;37545;45.302;-122.946;2023-04-06T10:08:28;1.15;;;0.77;;
51467;SDS011;37545;45.302;-122.946;2023-04-06T10:10:57;0.73;;;0.50;;
51467;SDS011;37545;45.302;-122.946;2023-04-06T10:13:33;1.08;;;0.60;;
51467;SDS011;37545;45.302;-122.946;2023-04-06T10:16:02;0.80;;;0.55;;
51467;SDS011;37545;45.302;-122.946;2023-04-06T10:18:31;2.38;;;0.50;;
51467;SDS011;37545;45.302;-122.946;2023-04-06T10:21:04;0.95;;;0.63;;
51467;SDS011;37545;45.302;-122.946;2023-04-06T10:23:36;0.63;;;0.50;;
51467;SDS011;37545;45.302;-122.946;2023-04-06T10:26:12;1.30;;;0.57;;
51467;SDS011;37545;45.302;-122.946;2023-04-06T10:28:42;1.63;;;0.65;;
51467;SDS011;37545;45.302;-122.946;2023-04-06T10:31:11;1.17;;;0.80;;
51467;SDS011;37545;45.302;-122.946;2023-04-06T10:33:40;1.48;;;0.80;;
51467;SDS011;37545;45.302;-122.946;2023-04-06T10:36:13;1.10;;;0.80;;
51467;SDS011;37545;45.302;-122.946;2023-04-06T10:38:53;3.25;;;0.98;;
51467;SDS011;37545;45.302;-122.946;2023-04-06T10:41:23;1.20;;;0.90;;
51467;SDS011;37545;45.302;-122.946;2023-04-06T10:43:59;3.17;;;0.90;;
51467;SDS011;37545;45.302;-122.946;2023-04-06T10:46:28;2.97;;;0.98;;
51467;SDS011;37545;45.302;-122.946;2023-04-06T10:48:58;1.88;;;0.90;;
51467;SDS011;37545;45.302;-122.946;2023-04-06T10:51:38;1.60;;;0.88;;
51467;SDS011;37545;45.302;-122.946;2023-04-06T10:54:07;3.40;;;1.10;;
51467;SDS011;37545;45.302;-122.946;2023-04-06T10:56:37;1.17;;;0.90;;
51467;SDS011;37545;45.302;-122.946;2023-04-06T10:59:06;1.10;;;0.65;;
51467;SDS011;37545;45.302;-122.946;2023-04-06T11:01:34;2.30;;;0.80;;
51467;SDS011;37545;45.302;-122.946;2023-04-06T11:04:03;2.35;;;0.80;;
51467;SDS011;37545;45.302;-122.946;2023-04-06T11:06:34;4.00;;;0.80;;
51467;SDS011;37545;45.302;-122.946;2023-04-06T11:09:04;1.77;;;0.82;;
51467;SDS011;37545;45.302;-122.946;2023-04-06T11:11:32;3.30;;;1.00;;
51467;SDS011;37545;45.302;-122.946;2023-04-06T11:14:06;2.63;;;1.13;;
51467;SDS011;37545;45.302;-122.946;2023-04-06T11:16:37;1.42;;;0.80;;
51467;SDS011;37545;45.302;-122.946;2023-04-06T11:19:08;2.42;;;0.85;;
51467;SDS011;37545;45.302;-122.946;2023-04-06T11:21:38;2.42;;;0.88;;
51467;SDS011;37545;45.302;-122.946;2023-04-06T11:24:11;0.98;;;0.80;;
51467;SDS011;37545;45.302;-122.946;2023-04-06T11:26:41;1.77;;;0.80;;
51467;SDS011;37545;45.302;-122.946;2023-04-06T11:29:11;2.70;;;1.55;;
51467;SDS011;37545;45.302;-122.946;2023-04-06T11:31:41;2.70;;;0.63;;
51467;SDS011;37545;45.302;-122.946;2023-04-06T11:34:13;1.02;;;0.60;;
51467;SDS011;37545;45.302;-122.946;2023-04-06T11:36:45;1.48;;;0.93;;
51467;SDS011;37545;45.302;-122.946;2023-04-06T11:39:19;1.00;;;0.60;;
51467;SDS011;37545;45.302;-122.946;2023-04-06T11:41:49;1.90;;;1.00;;
51467;SDS011;37545;45.302;-122.946;2023-04-06T11:44:28;0.65;;;0.40;;
51467;SDS011;37545;45.302;-122.946;2023-04-06T11:47:00;1.13;;;0.73;;
51467;SDS011;37545;45.302;-122.946;2023-04-06T11:49:29;0.80;;;0.50;;
51467;SDS011;37545;45.302;-122.946;2023-04-06T11:51:58;0.70;;;0.50;;
51467;SDS011;37545;45.302;-122.946;2023-04-06T11:54:33;0.73;;;0.40;;
51467;SDS011;37545;45.302;-122.946;2023-04-06T11:57:03;0.88;;;0.73;;
51467;SDS011;37545;45.302;-122.946;2023-04-06T11:59:32;1.45;;;0.40;;
51467;SDS011;37545;45.302;-122.946;2023-04-06T12:02:01;1.08;;;0.70;;
51467;SDS011;37545;45.302;-122.946;2023-04-06T12:04:30;1.33;;;0.60;;
51467;SDS011;37545;45.302;-122.946;2023-04-06T12:06:59;1.20;;;0.40;;
51467;SDS011;37545;45.302;-122.946;2023-04-06T12:09:28;0.95;;;0.50;;
51467;SDS011;37545;45.302;-122.946;2023-04-06T12:11:58;0.77;;;0.28;;
51467;SDS011;37545;45.302;-122.946;2023-04-06T12:14:26;0.20;;;0.20;;
51467;SDS011;37545;45.302;-122.946;2023-04-06T12:16:56;0.85;;;0.40;;
51467;SDS011;37545;45.302;-122.946;2023-04-06T12:19:25;0.40;;;0.30;;
51467;SDS011;37545;45.302;-122.946;2023-04-06T12:21:53;1.13;;;0.55;;
51467;SDS011;37545;45.302;-122.946;2023-04-06T12:24:22;0.82;;;0.47;;
51467;SDS011;37545;45.302;-122.946;2023-04-06T12:26:50;2.50;;;0.50;;
51467;SDS011;37545;45.302;-122.946;2023-04-06T12:29:22;1.00;;;0.40;;
51467;SDS011;37545;45.302;-122.946;2023-04-06T12:31:51;0.77;;;0.30;;
51467;SDS011;37545;45.302;-122.946;2023-04-06T12:34:20;0.30;;;0.30;;
51467;SDS011;37545;45.302;-122.946;2023-04-06T12:36:49;0.45;;;0.45;;
51467;SDS011;37545;45.302;-122.946;2023-04-06T12:39:18;0.73;;;0.50;;
51467;SDS011;37545;45.302;-122.946;2023-04-06T12:41:48;1.02;;;0.30;;
51467;SDS011;37545;45.302;-122.946;2023-04-06T12:44:16;1.83;;;0.75;;
51467;SDS011;37545;45.302;-122.946;2023-04-06T12:46:46;1.17;;;0.65;;
51467;SDS011;37545;45.302;-122.946;2023-04-06T12:49:15;2.55;;;0.50;;
51467;SDS011;37545;45.302;-122.946;2023-04-06T12:51:44;2.20;;;0.55;;
51467;SDS011;37545;45.302;-122.946;2023-04-06T12:54:13;1.80;;;0.70;;
51467;SDS011;37545;45.302;-122.946;2023-04-06T12:56:41;1.23;;;0.43;;
51467;SDS011;37545;45.302;-122.946;2023-04-06T12:59:10;0.75;;;0.57;;
51467;SDS011;37545;45.302;-122.946;2023-04-06T13:01:38;1.60;;;0.50;;
51467;SDS011;37545;45.302;-122.946;2023-04-06T13:04:09;2.05;;;0.43;;
51467;SDS011;37545;45.302;-122.946;2023-04-06T13:06:37;1.30;;;0.20;;
51467;SDS011;37545;45.302;-122.946;2023-04-06T13:09:06;0.80;;;0.38;;
51467;SDS011;37545;45.302;-122.946;2023-04-06T13:11:34;1.50;;;0.52;;
51467;SDS011;37545;45.302;-122.946;2023-04-06T13:14:03;2.75;;;0.50;;
51467;SDS011;37545;45.302;-122.946;2023-04-06T13:16:31;0.73;;;0.30;;
51467;SDS011;37545;45.302;-122.946;2023-04-06T13:19:00;1.45;;;0.50;;
51467;SDS011;37545;45.302;-122.946;2023-04-06T13:21:30;1.73;;;0.32;;
51467;SDS011;37545;45.302;-122.946;2023-04-06T13:23:59;0.75;;;0.40;;
51467;SDS011;37545;45.302;-122.946;2023-04-06T13:26:27;2.35;;;0.50;;
51467;SDS011;37545;45.302;-122.946;2023-04-06T13:28:56;2.50;;;0.60;;
51467;SDS011;37545;45.302;-122.946;2023-04-06T13:31:25;1.38;;;0.52;;
51467;SDS011;37545;45.302;-122.946;2023-04-06T13:33:53;3.38;;;0.68;;
51467;SDS011;37545;45.302;-122.946;2023-04-06T13:36:22;0.57;;;0.45;;
51467;SDS011;37545;45.302;-122.946;2023-04-06T13:38:52;1.98;;;0.85;;
51467;SDS011;37545;45.302;-122.946;2023-04-06T13:41:21;1.30;;;0.88;;
51467;SDS011;37545;45.302;-122.946;2023-04-06T13:43:51;1.23;;;0.63;;
51467;SDS011;37545;45.302;-122.946;2023-04-06T13:46:19;1.48;;;0.70;;
51467;SDS011;37545;45.302;-122.946;2023-04-06T13:48:49;3.05;;;0.77;;
51467;SDS011;37545;45.302;-122.946;2023-04-06T13:51:18;2.42;;;1.10;;
51467;SDS011;37545;45.302;-122.946;2023-04-06T13:53:49;2.60;;;0.73;;
51467;SDS011;37545;45.302;-122.946;2023-04-06T13:56:20;2.55;;;1.10;;
51467;SDS011;37545;45.302;-122.946;2023-04-06T13:58:49;3.40;;;0.70;;
51467;SDS011;37545;45.302;-122.946;2023-04-06T14:01:20;1.50;;;0.73;;
51467;SDS011;37545;45.302;-122.946;2023-04-06T14:03:49;2.38;;;0.68;;
51467;SDS011;37545;45.302;-122.946;2023-04-06T14:06:18;1.98;;;0.65;;
51467;SDS011;37545;45.302;-122.946;2023-04-06T14:08:47;1.10;;;0.57;;
51467;SDS011;37545;45.302;-122.946;2023-04-06T14:11:17;1.98;;;0.63;;
51467;SDS011;37545;45.302;-122.946;2023-04-06T14:13:46;2.33;;;1.10;;
51467;SDS011;37545;45.302;-122.946;2023-04-06T14:16:14;3.50;;;1.25;;
51467;SDS011;37545;45.302;-122.946;2023-04-06T14:18:45;2.78;;;1.10;;
51467;SDS011;37545;45.302;-122.946;2023-04-06T14:21:14;1.35;;;0.55;;
51467;SDS011;37545;45.302;-122.946;2023-04-06T14:23:42;0.47;;;0.40;;